CheckWX is a tool to help pilots better visualize weather data.  It is not intended as a substitute for an official pre-flight weather briefing.

02:19:05 UTC

KHOP METAR
Campbell AAF (Fort Campbell) Airport
Fort Campbell/Hopkinsville, Kentucky, USA
Current

23 mins ago

KHOP 160156Z AUTO 14008KT 10SM FEW130 25/21 A3002 RMK AO2 SLP163 T02510205
Observed
Jul-16 @ 01:56 UTC
Wind
  • 140° at 8 KTS
Visibility
10 SM
Flight Rules
VFR
Cloud Levels
  • Few at 13,000' AGL
Temperature
25°C / 77°F
Dewpoint
21°C / 70°F
Humidity
79%
Altimeter
30.02" Hg
Pressure
1016.62 hPa
Previous

1 hour ago

KHOP 160056Z AUTO 13008KT 10SM FEW230 26/21 A3002 RMK AO2 SLP163 T02600210
Observed
Jul-16 @ 00:56 UTC
Wind
  • 130° at 8 KTS
Visibility
10 SM
Flight Rules
VFR
Cloud Levels
  • Few at 23,000' AGL
Temperature
26°C / 79°F
Dewpoint
21°C / 70°F
Humidity
74%
Altimeter
30.02" Hg
Pressure
1016.62 hPa
Previous

2 hours ago

KHOP 152356Z AUTO 15009G16KT 10SM CLR 27/22 A3002 RMK AO2 SLP163 60004 T02650215 10281 20254 55006
Observed
Jul-15 @ 23:56 UTC
Wind
  • 150° at 9 KTS
  • Gusting to 16 KTS
Visibility
10 SM
Flight Rules
VFR
Cloud Levels
  • Clear skies
Temperature
27°C / 81°F
Dewpoint
22°C / 72°F
Heat Index
29°C / 85°F
Humidity
74%
Altimeter
30.02" Hg
Pressure
1016.62 hPa